createdAt,value
2018-08-27T00:09:20.374Z,0.0
2018-08-27T00:19:31.598Z,0.0
2018-08-27T00:29:48.222Z,0.0
2018-08-27T00:40:02.364Z,0.0
2018-08-27T00:50:47.726Z,0.0
2018-08-27T01:01:02.419Z,0.0
2018-08-27T01:11:16.827Z,0.0
2018-08-27T01:21:30.646Z,0.0
2018-08-27T01:31:44.934Z,0.0
2018-08-27T01:41:59.157Z,0.0
2018-08-27T01:52:12.254Z,0.0
2018-08-27T02:02:27.408Z,0.0
2018-08-27T02:12:42.851Z,0.0
2018-08-27T02:22:57.343Z,0.0
2018-08-27T02:33:11.703Z,0.0
2018-08-27T02:43:57.006Z,0.0
2018-08-27T02:54:11.706Z,0.0
2018-08-27T03:04:57.101Z,0.0
2018-08-27T03:15:08.495Z,0.0
2018-08-27T03:25:23.449Z,0.0
2018-08-27T03:35:34.629Z,0.0
2018-08-27T03:45:49.168Z,0.0
2018-08-27T03:56:02.997Z,0.0
2018-08-27T04:06:28.291Z,0.0
2018-08-27T04:16:42.768Z,0.0
2018-08-27T04:27:00.590Z,0.0
2018-08-27T04:37:45.544Z,0.0
2018-08-27T04:48:31.258Z,0.0
2018-08-27T04:58:45.859Z,5.0
2018-08-27T05:09:00.839Z,5.0
2018-08-27T05:19:15.067Z,5.0
2018-08-27T05:29:26.212Z,10.0
2018-08-27T05:39:42.092Z,15.0
2018-08-27T05:49:55.952Z,20.0
2018-08-27T06:00:10.519Z,20.0
2018-08-27T06:10:24.705Z,20.0
2018-08-27T06:20:38.669Z,25.0
2018-08-27T06:30:52.843Z,35.0
2018-08-27T06:41:08.814Z,35.0
2018-08-27T06:51:22.331Z,35.0
2018-08-27T07:01:37.853Z,45.0
2018-08-27T07:11:52.399Z,50.0
2018-08-27T07:22:06.758Z,60.0
2018-08-27T07:32:20.223Z,65.0
2018-08-27T07:43:05.077Z,75.0
2018-08-27T07:53:18.755Z,90.0
2018-08-27T08:03:30.565Z,100.0
2018-08-27T08:13:41.981Z,145.0
2018-08-27T08:23:56.275Z,260.0
2018-08-27T08:34:10.317Z,190.0
2018-08-27T08:44:24.514Z,180.0
2018-08-27T08:54:40.369Z,155.0
2018-08-27T09:04:53.904Z,150.0
2018-08-27T09:15:07.259Z,225.0
2018-08-27T09:25:21.605Z,215.0
2018-08-27T09:35:35.754Z,275.0
2018-08-27T09:45:50.003Z,170.0
2018-08-27T09:56:02.028Z,115.0
2018-08-27T10:06:17.203Z,235.0
2018-08-27T10:16:31.484Z,385.0
2018-08-27T10:26:46.012Z,1145.0
2018-08-27T10:37:00.061Z,1790.0
2018-08-27T10:47:11.202Z,720.0
2018-08-27T10:57:25.535Z,1615.0
2018-08-27T11:08:35.638Z,410.0
2018-08-27T11:18:49.385Z,475.0
2018-08-27T11:39:17.660Z,1305.0
2018-08-27T11:49:31.990Z,445.0
2018-08-27T11:59:46.706Z,265.0
2018-08-27T12:10:00.108Z,280.0
2018-08-27T12:20:13.625Z,365.0
2018-08-27T12:30:27.735Z,440.0
2018-08-27T12:40:46.690Z,1950.0
2018-08-27T12:51:05.919Z,1080.0
2018-08-27T13:01:17.580Z,530.0
2018-08-27T13:11:31.802Z,225.0
2018-08-27T13:21:43.905Z,360.0
2018-08-27T13:52:30.310Z,465.0
2018-08-27T14:02:58.316Z,315.0
2018-08-27T14:13:54.287Z,195.0
2018-08-27T14:24:09.120Z,175.0
2018-08-27T14:44:51.736Z,190.0
2018-08-27T14:56:05.197Z,245.0
2018-08-27T15:06:16.861Z,180.0
2018-08-27T15:17:02.397Z,160.0
2018-08-27T15:28:45.002Z,275.0
2018-08-27T15:50:41.164Z,290.0
2018-08-27T16:01:26.115Z,100.0
2018-08-27T16:06:19.024Z,50.0
2018-08-27T16:16:31.754Z,55.0
2018-08-27T16:26:45.473Z,85.0
2018-08-27T16:36:59.856Z,80.0
2018-08-27T16:47:13.965Z,135.0
2018-08-27T16:57:28.339Z,115.0
2018-08-27T17:07:42.261Z,105.0
2018-08-27T17:18:27.303Z,70.0
2018-08-27T17:28:41.224Z,50.0
2018-08-27T17:38:55.205Z,45.0
2018-08-27T17:49:09.724Z,40.0
2018-08-27T17:59:23.841Z,30.0
2018-08-27T18:10:08.627Z,20.0
2018-08-27T18:21:10.754Z,10.0
2018-08-27T18:31:22.638Z,0.0
2018-08-27T18:41:39.430Z,0.0
2018-08-27T18:51:53.531Z,0.0
2018-08-27T19:02:05.934Z,0.0
2018-08-27T19:23:49.710Z,0.0
2018-08-27T19:34:05.158Z,0.0
2018-08-27T19:45:06.400Z,0.0
2018-08-27T19:55:48.671Z,0.0
2018-08-27T20:06:03.301Z,0.0
2018-08-27T20:16:15.636Z,0.0
2018-08-27T20:26:29.753Z,0.0
2018-08-27T20:36:45.457Z,0.0
2018-08-27T20:46:59.662Z,0.0
2018-08-27T20:57:13.538Z,0.0
2018-08-27T21:07:55.136Z,0.0
2018-08-27T21:18:08.801Z,0.0
2018-08-27T21:28:23.079Z,0.0
2018-08-27T21:38:37.465Z,0.0
2018-08-27T21:48:51.581Z,0.0
2018-08-27T21:59:05.828Z,0.0
2018-08-27T22:09:20.023Z,0.0
2018-08-27T22:19:34.410Z,0.0
2018-08-27T22:29:48.660Z,0.0
2018-08-27T22:40:03.329Z,0.0
2018-08-27T22:50:17.020Z,0.0
2018-08-27T23:01:02.904Z,0.0
2018-08-27T23:11:17.211Z,0.0
2018-08-27T23:21:32.922Z,0.0
2018-08-27T23:31:46.595Z,0.0
2018-08-27T23:42:00.980Z,0.0
2018-08-27T23:52:15.254Z,0.0
